Aeroporto :
LOGIN :

Iscrizione | Disclaimer

   EN    FR    IT 

 










Sommario :    VFR   VFR Marginale   IFR   IFR Intensivo   IFR Molto Intensivo
Visibilità : 
Base nubi : 
>= 8 km
>= 3000ft
5 / 8 km
1000 / 3000 ft
1500m / 5 km
500 / 1000 ft
800 / 1500m
200 / 500 ft
< 800m
< 200 ft
Simboli :   Temporali  Nebbia  Neve Forte  Precipitazioni Forti  Vento > 20 kt
SIGMETs :   Varie  Temporali  Ghiacco  Turbolenza  Onda orograficha  Ceneri Vulcaniche







- Altitudine del aeroporto : 144 ft
- Codice IATA : PGF
- Carte del aeroporto


LFMP - Perpignan

ULTIMO METAR :
  • 210900Z AUTO VRB02KT CAVOK 15/M01 Q1029 NOSIG

METARs OBSOLETI :
  • 210830Z AUTO 34007KT 300V020 CAVOK 14/M01 Q1029 BECMG 09010KT
  • 210800Z AUTO 31007KT 290V350 CAVOK 13/M02 Q1029 NOSIG
  • 210730Z AUTO VRB02KT CAVOK 11/M01 Q1029 NOSIG
  • 210700Z AUTO 31005KT 290V350 CAVOK 09/M01 Q1029 NOSIG
  • 210630Z AUTO 25003KT 230V300 CAVOK 06/M01 Q1029 NOSIG

TAF TAF LFMP
Valido dal 21 a 09 ore il 22 a 09 ore UTC


210800Z 2109/2209 VRB05KT CAVOK
BECMG 2110/2112 09010KT
BECMG 2115/2118 VRB05KT
ATIS : +33 4 68 63 75 12
Nessun NOTAM noto per questo aeroporto.



MetMap, La meteo Aeronautica in un colpo d'occhio ! - Copyright ORBIFLY Dicembre 2007 - Disclaimer

ORBIFLY MET'MAP TEAM :

Programmazione e sviluppo : Alexandra Zaïnal
Concezione e sviluppo : Baudouin d'Aumeries
Co-Programmazione e sviluppo : Marc-Olivier Méhu
Supporto tecnico e logistico : Manuel Goepfert
Aiuto per la traduzione : Arnaldo La Scala

Contatto : metmap@orbifly.com




FONTI E CREDITI :

   NOAA